sensor_id;sensor_type;location;lat;lon;timestamp;P1;durP1;ratioP1;P2;durP2;ratioP2
71570;SDS011;59407;42.682;23.322;2023-06-24T00:01:20;10.43;;;6.03;;
71570;SDS011;59407;42.682;23.322;2023-06-24T00:03:47;10.70;;;6.43;;
71570;SDS011;59407;42.682;23.322;2023-06-24T00:06:13;9.50;;;5.70;;
71570;SDS011;59407;42.682;23.322;2023-06-24T00:08:46;10.23;;;6.10;;
71570;SDS011;59407;42.682;23.322;2023-06-24T00:11:12;9.05;;;5.72;;
71570;SDS011;59407;42.682;23.322;2023-06-24T00:13:38;10.98;;;6.18;;
71570;SDS011;59407;42.682;23.322;2023-06-24T00:16:04;9.30;;;5.57;;
71570;SDS011;59407;42.682;23.322;2023-06-24T00:18:31;9.37;;;5.57;;
71570;SDS011;59407;42.682;23.322;2023-06-24T00:21:00;10.63;;;5.85;;
71570;SDS011;59407;42.682;23.322;2023-06-24T00:23:30;9.57;;;5.18;;
71570;SDS011;59407;42.682;23.322;2023-06-24T00:25:59;9.25;;;4.55;;
71570;SDS011;59407;42.682;23.322;2023-06-24T00:28:25;9.40;;;4.80;;
71570;SDS011;59407;42.682;23.322;2023-06-24T00:30:50;9.23;;;5.47;;
71570;SDS011;59407;42.682;23.322;2023-06-24T00:33:15;9.37;;;5.60;;
71570;SDS011;59407;42.682;23.322;2023-06-24T00:35:48;8.80;;;4.93;;
71570;SDS011;59407;42.682;23.322;2023-06-24T00:38:13;8.30;;;5.03;;
71570;SDS011;59407;42.682;23.322;2023-06-24T00:40:40;9.80;;;5.45;;
71570;SDS011;59407;42.682;23.322;2023-06-24T00:43:05;9.17;;;5.53;;
71570;SDS011;59407;42.682;23.322;2023-06-24T00:45:31;8.95;;;5.50;;
71570;SDS011;59407;42.682;23.322;2023-06-24T00:47:58;10.83;;;5.30;;
71570;SDS011;59407;42.682;23.322;2023-06-24T00:50:23;8.60;;;5.28;;
71570;SDS011;59407;42.682;23.322;2023-06-24T00:52:50;10.63;;;5.77;;
71570;SDS011;59407;42.682;23.322;2023-06-24T00:55:16;10.35;;;5.50;;
71570;SDS011;59407;42.682;23.322;2023-06-24T00:57:45;11.65;;;5.75;;
71570;SDS011;59407;42.682;23.322;2023-06-24T01:00:16;9.07;;;5.30;;
71570;SDS011;59407;42.682;23.322;2023-06-24T01:02:43;11.32;;;6.28;;
71570;SDS011;59407;42.682;23.322;2023-06-24T01:05:10;8.67;;;5.50;;
71570;SDS011;59407;42.682;23.322;2023-06-24T01:07:37;10.35;;;5.60;;
71570;SDS011;59407;42.682;23.322;2023-06-24T01:10:03;9.68;;;5.75;;
71570;SDS011;59407;42.682;23.322;2023-06-24T01:12:37;9.57;;;5.40;;
71570;SDS011;59407;42.682;23.322;2023-06-24T01:15:06;10.43;;;5.90;;
71570;SDS011;59407;42.682;23.322;2023-06-24T01:20:27;11.88;;;5.82;;
71570;SDS011;59407;42.682;23.322;2023-06-24T01:34:22;10.77;;;5.97;;
71570;SDS011;59407;42.682;23.322;2023-06-24T01:36:56;10.50;;;6.10;;
71570;SDS011;59407;42.682;23.322;2023-06-24T01:39:26;11.68;;;5.90;;
71570;SDS011;59407;42.682;23.322;2023-06-24T01:41:55;9.40;;;5.85;;
71570;SDS011;59407;42.682;23.322;2023-06-24T01:44:25;8.87;;;5.40;;
71570;SDS011;59407;42.682;23.322;2023-06-24T01:46:52;10.15;;;5.78;;
71570;SDS011;59407;42.682;23.322;2023-06-24T01:49:20;10.65;;;5.45;;
71570;SDS011;59407;42.682;23.322;2023-06-24T01:51:46;12.43;;;6.05;;
71570;SDS011;59407;42.682;23.322;2023-06-24T01:54:13;11.10;;;6.00;;
71570;SDS011;59407;42.682;23.322;2023-06-24T01:56:41;10.00;;;5.50;;
71570;SDS011;59407;42.682;23.322;2023-06-24T01:59:08;11.45;;;5.43;;
71570;SDS011;59407;42.682;23.322;2023-06-24T02:01:35;11.93;;;5.80;;
71570;SDS011;59407;42.682;23.322;2023-06-24T02:04:05;10.10;;;5.88;;
71570;SDS011;59407;42.682;23.322;2023-06-24T02:06:34;10.82;;;6.60;;
71570;SDS011;59407;42.682;23.322;2023-06-24T02:09:00;10.27;;;5.77;;
71570;SDS011;59407;42.682;23.322;2023-06-24T02:11:28;9.93;;;6.00;;
71570;SDS011;59407;42.682;23.322;2023-06-24T02:13:55;12.43;;;5.85;;
71570;SDS011;59407;42.682;23.322;2023-06-24T02:16:22;8.48;;;5.88;;
71570;SDS011;59407;42.682;23.322;2023-06-24T02:18:48;11.23;;;6.65;;
71570;SDS011;59407;42.682;23.322;2023-06-24T02:21:17;9.90;;;5.80;;
71570;SDS011;59407;42.682;23.322;2023-06-24T02:23:46;10.82;;;6.35;;
71570;SDS011;59407;42.682;23.322;2023-06-24T02:26:13;11.57;;;6.30;;
71570;SDS011;59407;42.682;23.322;2023-06-24T02:28:39;13.15;;;6.85;;
71570;SDS011;59407;42.682;23.322;2023-06-24T02:31:06;11.40;;;6.37;;
71570;SDS011;59407;42.682;23.322;2023-06-24T02:33:34;11.52;;;6.50;;
71570;SDS011;59407;42.682;23.322;2023-06-24T02:35:59;11.10;;;6.20;;
71570;SDS011;59407;42.682;23.322;2023-06-24T02:38:25;11.07;;;6.37;;
71570;SDS011;59407;42.682;23.322;2023-06-24T02:40:51;10.18;;;6.70;;
71570;SDS011;59407;42.682;23.322;2023-06-24T02:43:17;12.57;;;6.87;;
71570;SDS011;59407;42.682;23.322;2023-06-24T02:45:42;13.07;;;6.43;;
71570;SDS011;59407;42.682;23.322;2023-06-24T02:48:09;12.67;;;6.53;;
71570;SDS011;59407;42.682;23.322;2023-06-24T02:50:36;12.30;;;7.00;;
71570;SDS011;59407;42.682;23.322;2023-06-24T02:53:04;13.50;;;7.70;;
71570;SDS011;59407;42.682;23.322;2023-06-24T02:55:29;12.23;;;6.95;;
71570;SDS011;59407;42.682;23.322;2023-06-24T02:57:55;12.40;;;6.73;;
71570;SDS011;59407;42.682;23.322;2023-06-24T03:00:23;13.57;;;7.78;;
71570;SDS011;59407;42.682;23.322;2023-06-24T03:02:49;13.02;;;7.80;;
71570;SDS011;59407;42.682;23.322;2023-06-24T03:05:15;15.23;;;8.23;;
71570;SDS011;59407;42.682;23.322;2023-06-24T03:07:42;12.18;;;7.20;;
71570;SDS011;59407;42.682;23.322;2023-06-24T03:10:07;12.97;;;7.30;;
71570;SDS011;59407;42.682;23.322;2023-06-24T03:12:35;15.48;;;7.18;;
71570;SDS011;59407;42.682;23.322;2023-06-24T03:15:01;15.03;;;7.37;;
71570;SDS011;59407;42.682;23.322;2023-06-24T03:17:26;13.40;;;7.30;;
71570;SDS011;59407;42.682;23.322;2023-06-24T03:19:52;12.45;;;7.30;;
71570;SDS011;59407;42.682;23.322;2023-06-24T03:22:18;13.03;;;6.77;;
71570;SDS011;59407;42.682;23.322;2023-06-24T03:24:44;11.87;;;7.30;;
71570;SDS011;59407;42.682;23.322;2023-06-24T03:27:10;13.52;;;7.50;;
71570;SDS011;59407;42.682;23.322;2023-06-24T03:29:35;11.13;;;6.97;;
71570;SDS011;59407;42.682;23.322;2023-06-24T03:32:01;12.73;;;6.70;;
71570;SDS011;59407;42.682;23.322;2023-06-24T03:34:26;14.83;;;7.40;;
71570;SDS011;59407;42.682;23.322;2023-06-24T03:36:53;13.07;;;7.28;;
71570;SDS011;59407;42.682;23.322;2023-06-24T03:39:20;12.77;;;7.22;;
71570;SDS011;59407;42.682;23.322;2023-06-24T03:41:46;13.25;;;7.35;;
71570;SDS011;59407;42.682;23.322;2023-06-24T03:44:11;11.50;;;6.20;;
71570;SDS011;59407;42.682;23.322;2023-06-24T03:46:37;10.95;;;6.65;;
71570;SDS011;59407;42.682;23.322;2023-06-24T03:49:03;11.30;;;7.20;;
71570;SDS011;59407;42.682;23.322;2023-06-24T03:51:28;10.80;;;6.85;;
71570;SDS011;59407;42.682;23.322;2023-06-24T03:53:54;12.30;;;6.60;;
71570;SDS011;59407;42.682;23.322;2023-06-24T03:56:20;10.15;;;6.20;;
71570;SDS011;59407;42.682;23.322;2023-06-24T03:58:45;11.33;;;6.53;;
71570;SDS011;59407;42.682;23.322;2023-06-24T04:01:12;11.32;;;7.22;;
71570;SDS011;59407;42.682;23.322;2023-06-24T04:03:37;11.87;;;7.17;;
71570;SDS011;59407;42.682;23.322;2023-06-24T04:06:02;14.00;;;7.20;;
71570;SDS011;59407;42.682;23.322;2023-06-24T04:08:28;11.50;;;6.87;;
71570;SDS011;59407;42.682;23.322;2023-06-24T04:10:59;13.80;;;7.18;;
71570;SDS011;59407;42.682;23.322;2023-06-24T04:13:28;13.80;;;7.32;;
71570;SDS011;59407;42.682;23.322;2023-06-24T04:15:55;13.23;;;6.97;;
71570;SDS011;59407;42.682;23.322;2023-06-24T04:18:20;12.23;;;7.20;;
71570;SDS011;59407;42.682;23.322;2023-06-24T04:21:05;12.30;;;7.15;;
71570;SDS011;59407;42.682;23.322;2023-06-24T04:23:32;13.52;;;7.38;;
71570;SDS011;59407;42.682;23.322;2023-06-24T04:25:58;11.80;;;7.10;;
71570;SDS011;59407;42.682;23.322;2023-06-24T04:28:24;12.02;;;7.07;;
71570;SDS011;59407;42.682;23.322;2023-06-24T04:30:51;12.87;;;6.90;;
71570;SDS011;59407;42.682;23.322;2023-06-24T04:33:16;10.80;;;6.65;;
71570;SDS011;59407;42.682;23.322;2023-06-24T04:35:42;12.63;;;6.93;;
71570;SDS011;59407;42.682;23.322;2023-06-24T04:38:09;14.57;;;8.68;;
71570;SDS011;59407;42.682;23.322;2023-06-24T04:40:34;11.80;;;7.03;;
71570;SDS011;59407;42.682;23.322;2023-06-24T04:43:00;13.45;;;7.10;;
71570;SDS011;59407;42.682;23.322;2023-06-24T04:45:25;13.30;;;7.60;;
71570;SDS011;59407;42.682;23.322;2023-06-24T04:47:52;12.15;;;7.32;;
71570;SDS011;59407;42.682;23.322;2023-06-24T04:50:17;11.70;;;7.57;;
71570;SDS011;59407;42.682;23.322;2023-06-24T04:52:42;12.98;;;7.45;;
71570;SDS011;59407;42.682;23.322;2023-06-24T04:55:09;12.80;;;7.10;;
71570;SDS011;59407;42.682;23.322;2023-06-24T04:57:35;12.38;;;6.38;;
71570;SDS011;59407;42.682;23.322;2023-06-24T05:00:04;10.47;;;6.90;;
71570;SDS011;59407;42.682;23.322;2023-06-24T05:02:30;11.65;;;6.45;;
71570;SDS011;59407;42.682;23.322;2023-06-24T05:04:55;13.57;;;7.10;;
71570;SDS011;59407;42.682;23.322;2023-06-24T05:07:21;12.15;;;7.28;;
71570;SDS011;59407;42.682;23.322;2023-06-24T05:09:47;11.90;;;6.83;;
71570;SDS011;59407;42.682;23.322;2023-06-24T05:12:13;11.90;;;7.32;;
71570;SDS011;59407;42.682;23.322;2023-06-24T05:14:39;13.40;;;7.37;;
71570;SDS011;59407;42.682;23.322;2023-06-24T05:17:07;15.60;;;7.80;;
71570;SDS011;59407;42.682;23.322;2023-06-24T05:19:32;12.77;;;7.27;;
71570;SDS011;59407;42.682;23.322;2023-06-24T05:21:58;11.35;;;7.10;;
71570;SDS011;59407;42.682;23.322;2023-06-24T05:24:23;14.27;;;7.77;;
71570;SDS011;59407;42.682;23.322;2023-06-24T05:26:49;13.13;;;7.70;;
71570;SDS011;59407;42.682;23.322;2023-06-24T05:29:15;14.23;;;7.25;;
71570;SDS011;59407;42.682;23.322;2023-06-24T05:31:41;14.95;;;7.63;;
71570;SDS011;59407;42.682;23.322;2023-06-24T05:34:07;13.00;;;7.67;;
71570;SDS011;59407;42.682;23.322;2023-06-24T05:36:33;14.60;;;7.35;;
71570;SDS011;59407;42.682;23.322;2023-06-24T05:38:59;12.27;;;7.10;;
71570;SDS011;59407;42.682;23.322;2023-06-24T05:44:23;11.25;;;6.72;;
71570;SDS011;59407;42.682;23.322;2023-06-24T05:46:49;10.40;;;6.40;;
71570;SDS011;59407;42.682;23.322;2023-06-24T05:49:15;12.95;;;7.35;;
71570;SDS011;59407;42.682;23.322;2023-06-24T05:51:40;13.27;;;6.87;;
71570;SDS011;59407;42.682;23.322;2023-06-24T05:54:05;10.87;;;6.50;;
71570;SDS011;59407;42.682;23.322;2023-06-24T05:56:33;11.32;;;6.80;;
71570;SDS011;59407;42.682;23.322;2023-06-24T05:58:58;11.40;;;6.15;;
71570;SDS011;59407;42.682;23.322;2023-06-24T06:01:39;10.90;;;6.20;;
71570;SDS011;59407;42.682;23.322;2023-06-24T06:04:04;9.38;;;5.70;;
71570;SDS011;59407;42.682;23.322;2023-06-24T06:06:29;8.53;;;5.80;;
71570;SDS011;59407;42.682;23.322;2023-06-24T06:08:56;10.00;;;6.30;;
71570;SDS011;59407;42.682;23.322;2023-06-24T06:11:23;11.65;;;6.72;;
71570;SDS011;59407;42.682;23.322;2023-06-24T06:13:49;11.37;;;6.63;;
71570;SDS011;59407;42.682;23.322;2023-06-24T06:16:14;13.35;;;7.25;;
71570;SDS011;59407;42.682;23.322;2023-06-24T06:18:40;10.87;;;6.50;;
71570;SDS011;59407;42.682;23.322;2023-06-24T06:21:05;10.93;;;5.90;;
71570;SDS011;59407;42.682;23.322;2023-06-24T06:23:30;11.37;;;7.10;;
71570;SDS011;59407;42.682;23.322;2023-06-24T06:26:14;14.48;;;6.95;;
71570;SDS011;59407;42.682;23.322;2023-06-24T06:28:44;13.48;;;7.57;;
71570;SDS011;59407;42.682;23.322;2023-06-24T06:31:13;13.63;;;7.15;;
71570;SDS011;59407;42.682;23.322;2023-06-24T06:33:43;11.10;;;7.00;;
71570;SDS011;59407;42.682;23.322;2023-06-24T06:36:08;10.50;;;6.33;;
71570;SDS011;59407;42.682;23.322;2023-06-24T06:38:35;11.80;;;6.63;;
71570;SDS011;59407;42.682;23.322;2023-06-24T06:41:00;10.50;;;5.87;;
71570;SDS011;59407;42.682;23.322;2023-06-24T06:43:27;10.90;;;6.75;;
71570;SDS011;59407;42.682;23.322;2023-06-24T06:45:52;11.30;;;6.40;;
71570;SDS011;59407;42.682;23.322;2023-06-24T06:48:27;10.13;;;6.47;;
71570;SDS011;59407;42.682;23.322;2023-06-24T06:51:07;10.55;;;6.43;;
71570;SDS011;59407;42.682;23.322;2023-06-24T06:53:51;9.45;;;6.70;;
71570;SDS011;59407;42.682;23.322;2023-06-24T06:56:28;10.45;;;6.07;;
71570;SDS011;59407;42.682;23.322;2023-06-24T06:58:56;10.33;;;6.17;;
71570;SDS011;59407;42.682;23.322;2023-06-24T07:01:22;8.43;;;5.45;;
71570;SDS011;59407;42.682;23.322;2023-06-24T07:03:51;10.93;;;6.93;;
71570;SDS011;59407;42.682;23.322;2023-06-24T07:06:20;9.20;;;5.87;;
71570;SDS011;59407;42.682;23.322;2023-06-24T07:14:05;9.55;;;5.55;;
71570;SDS011;59407;42.682;23.322;2023-06-24T07:16:39;10.23;;;6.05;;
71570;SDS011;59407;42.682;23.322;2023-06-24T07:19:20;10.13;;;6.20;;
71570;SDS011;59407;42.682;23.322;2023-06-24T07:21:54;9.40;;;5.63;;
71570;SDS011;59407;42.682;23.322;2023-06-24T07:24:33;10.55;;;5.78;;
71570;SDS011;59407;42.682;23.322;2023-06-24T07:27:44;9.50;;;6.00;;
71570;SDS011;59407;42.682;23.322;2023-06-24T07:33:44;10.13;;;5.70;;
71570;SDS011;59407;42.682;23.322;2023-06-24T07:37:02;11.18;;;5.55;;
71570;SDS011;59407;42.682;23.322;2023-06-24T07:39:47;9.90;;;6.13;;
71570;SDS011;59407;42.682;23.322;2023-06-24T07:42:44;10.27;;;6.10;;
71570;SDS011;59407;42.682;23.322;2023-06-24T07:45:14;9.83;;;6.07;;
71570;SDS011;59407;42.682;23.322;2023-06-24T07:47:45;9.55;;;6.05;;
71570;SDS011;59407;42.682;23.322;2023-06-24T07:50:19;10.30;;;6.25;;
71570;SDS011;59407;42.682;23.322;2023-06-24T07:52:44;8.65;;;5.75;;
71570;SDS011;59407;42.682;23.322;2023-06-24T07:55:11;10.47;;;6.27;;
71570;SDS011;59407;42.682;23.322;2023-06-24T07:57:39;10.48;;;6.78;;
71570;SDS011;59407;42.682;23.322;2023-06-24T08:00:06;12.93;;;6.13;;
71570;SDS011;59407;42.682;23.322;2023-06-24T08:15:05;11.65;;;6.60;;
71570;SDS011;59407;42.682;23.322;2023-06-24T08:17:33;10.90;;;6.63;;
71570;SDS011;59407;42.682;23.322;2023-06-24T08:20:38;11.30;;;6.60;;
71570;SDS011;59407;42.682;23.322;2023-06-24T08:23:21;12.33;;;6.40;;
71570;SDS011;59407;42.682;23.322;2023-06-24T08:31:25;7.95;;;5.03;;
71570;SDS011;59407;42.682;23.322;2023-06-24T08:33:59;11.82;;;6.00;;
71570;SDS011;59407;42.682;23.322;2023-06-24T08:40:02;9.82;;;6.18;;
71570;SDS011;59407;42.682;23.322;2023-06-24T08:52:38;9.80;;;5.80;;
71570;SDS011;59407;42.682;23.322;2023-06-24T08:55:17;10.55;;;6.65;;
71570;SDS011;59407;42.682;23.322;2023-06-24T09:23:58;9.60;;;5.80;;
71570;SDS011;59407;42.682;23.322;2023-06-24T09:26:24;9.43;;;6.20;;
71570;SDS011;59407;42.682;23.322;2023-06-24T09:28:50;10.45;;;5.97;;
71570;SDS011;59407;42.682;23.322;2023-06-24T09:31:16;11.23;;;5.83;;
71570;SDS011;59407;42.682;23.322;2023-06-24T09:33:43;9.48;;;5.80;;
71570;SDS011;59407;42.682;23.322;2023-06-24T09:36:12;11.15;;;5.95;;
71570;SDS011;59407;42.682;23.322;2023-06-24T09:38:40;9.00;;;6.03;;
71570;SDS011;59407;42.682;23.322;2023-06-24T09:41:07;10.95;;;6.22;;
71570;SDS011;59407;42.682;23.322;2023-06-24T09:43:33;11.53;;;6.30;;
71570;SDS011;59407;42.682;23.322;2023-06-24T09:46:05;9.30;;;5.90;;
71570;SDS011;59407;42.682;23.322;2023-06-24T09:48:30;9.40;;;5.88;;
71570;SDS011;59407;42.682;23.322;2023-06-24T09:50:58;12.57;;;5.80;;
71570;SDS011;59407;42.682;23.322;2023-06-24T09:53:25;9.73;;;5.80;;
71570;SDS011;59407;42.682;23.322;2023-06-24T09:55:53;10.00;;;6.03;;
71570;SDS011;59407;42.682;23.322;2023-06-24T09:58:23;9.07;;;5.97;;
71570;SDS011;59407;42.682;23.322;2023-06-24T10:00:49;8.47;;;5.97;;
71570;SDS011;59407;42.682;23.322;2023-06-24T10:03:16;8.32;;;5.22;;
71570;SDS011;59407;42.682;23.322;2023-06-24T10:05:42;9.88;;;5.45;;
71570;SDS011;59407;42.682;23.322;2023-06-24T10:08:09;8.75;;;5.53;;
71570;SDS011;59407;42.682;23.322;2023-06-24T10:10:35;16.17;;;9.83;;
71570;SDS011;59407;42.682;23.322;2023-06-24T10:13:00;9.52;;;6.50;;
71570;SDS011;59407;42.682;23.322;2023-06-24T10:15:26;8.50;;;5.70;;
71570;SDS011;59407;42.682;23.322;2023-06-24T10:17:52;7.63;;;4.57;;
71570;SDS011;59407;42.682;23.322;2023-06-24T10:20:23;9.40;;;5.27;;
71570;SDS011;59407;42.682;23.322;2023-06-24T10:22:50;7.78;;;5.30;;
71570;SDS011;59407;42.682;23.322;2023-06-24T10:25:16;9.47;;;5.70;;
71570;SDS011;59407;42.682;23.322;2023-06-24T10:27:43;8.15;;;5.28;;
71570;SDS011;59407;42.682;23.322;2023-06-24T10:30:08;8.98;;;5.60;;
71570;SDS011;59407;42.682;23.322;2023-06-24T10:32:40;8.03;;;5.13;;
71570;SDS011;59407;42.682;23.322;2023-06-24T10:40:35;9.45;;;5.05;;
71570;SDS011;59407;42.682;23.322;2023-06-24T10:45:57;9.38;;;5.07;;
71570;SDS011;59407;42.682;23.322;2023-06-24T10:48:24;7.63;;;4.45;;
71570;SDS011;59407;42.682;23.322;2023-06-24T10:50:53;9.27;;;5.32;;
71570;SDS011;59407;42.682;23.322;2023-06-24T10:53:29;7.70;;;4.65;;
71570;SDS011;59407;42.682;23.322;2023-06-24T10:55:56;10.63;;;5.20;;
71570;SDS011;59407;42.682;23.322;2023-06-24T10:58:22;7.93;;;5.10;;
71570;SDS011;59407;42.682;23.322;2023-06-24T11:00:49;8.40;;;4.82;;
71570;SDS011;59407;42.682;23.322;2023-06-24T11:03:18;7.47;;;4.10;;
71570;SDS011;59407;42.682;23.322;2023-06-24T11:05:48;6.10;;;3.87;;
71570;SDS011;59407;42.682;23.322;2023-06-24T11:08:17;7.07;;;4.28;;
71570;SDS011;59407;42.682;23.322;2023-06-24T11:10:44;8.40;;;4.18;;
71570;SDS011;59407;42.682;23.322;2023-06-24T11:16:10;8.30;;;4.45;;
71570;SDS011;59407;42.682;23.322;2023-06-24T11:18:44;7.10;;;4.10;;
71570;SDS011;59407;42.682;23.322;2023-06-24T11:21:19;6.50;;;3.55;;
71570;SDS011;59407;42.682;23.322;2023-06-24T11:23:46;10.68;;;5.70;;
71570;SDS011;59407;42.682;23.322;2023-06-24T11:26:14;7.03;;;3.70;;
71570;SDS011;59407;42.682;23.322;2023-06-24T11:28:41;6.60;;;4.00;;
71570;SDS011;59407;42.682;23.322;2023-06-24T11:31:09;7.57;;;4.23;;
71570;SDS011;59407;42.682;23.322;2023-06-24T11:33:42;7.25;;;4.05;;
71570;SDS011;59407;42.682;23.322;2023-06-24T11:36:09;6.57;;;3.90;;
71570;SDS011;59407;42.682;23.322;2023-06-24T11:38:36;6.38;;;3.80;;
71570;SDS011;59407;42.682;23.322;2023-06-24T11:41:22;6.60;;;3.67;;
71570;SDS011;59407;42.682;23.322;2023-06-24T11:43:52;8.37;;;3.80;;
71570;SDS011;59407;42.682;23.322;2023-06-24T11:46:34;5.65;;;3.67;;
71570;SDS011;59407;42.682;23.322;2023-06-24T11:49:04;6.93;;;3.72;;
71570;SDS011;59407;42.682;23.322;2023-06-24T11:51:37;6.68;;;3.67;;
71570;SDS011;59407;42.682;23.322;2023-06-24T11:54:13;6.57;;;3.58;;
71570;SDS011;59407;42.682;23.322;2023-06-24T11:56:40;7.27;;;3.90;;
71570;SDS011;59407;42.682;23.322;2023-06-24T11:59:20;8.57;;;5.22;;
71570;SDS011;59407;42.682;23.322;2023-06-24T12:01:53;9.15;;;5.15;;
71570;SDS011;59407;42.682;23.322;2023-06-24T12:04:28;6.22;;;3.58;;
71570;SDS011;59407;42.682;23.322;2023-06-24T12:07:07;6.95;;;4.00;;
71570;SDS011;59407;42.682;23.322;2023-06-24T12:09:36;6.03;;;3.50;;
71570;SDS011;59407;42.682;23.322;2023-06-24T12:12:03;6.88;;;4.00;;
71570;SDS011;59407;42.682;23.322;2023-06-24T12:14:32;5.80;;;3.70;;
71570;SDS011;59407;42.682;23.322;2023-06-24T12:16:57;7.15;;;4.10;;
71570;SDS011;59407;42.682;23.322;2023-06-24T12:19:23;5.97;;;3.53;;
71570;SDS011;59407;42.682;23.322;2023-06-24T12:21:48;5.80;;;3.70;;
71570;SDS011;59407;42.682;23.322;2023-06-24T12:24:14;7.10;;;4.43;;
71570;SDS011;59407;42.682;23.322;2023-06-24T12:26:39;7.90;;;4.10;;
71570;SDS011;59407;42.682;23.322;2023-06-24T12:29:04;7.80;;;3.90;;
71570;SDS011;59407;42.682;23.322;2023-06-24T12:31:30;6.37;;;3.67;;
71570;SDS011;59407;42.682;23.322;2023-06-24T12:33:55;6.63;;;3.80;;
71570;SDS011;59407;42.682;23.322;2023-06-24T12:36:22;6.00;;;3.60;;
71570;SDS011;59407;42.682;23.322;2023-06-24T12:38:48;7.30;;;4.00;;
71570;SDS011;59407;42.682;23.322;2023-06-24T12:41:13;6.13;;;3.83;;
71570;SDS011;59407;42.682;23.322;2023-06-24T12:43:39;6.50;;;4.00;;
71570;SDS011;59407;42.682;23.322;2023-06-24T12:46:10;6.60;;;3.80;;
71570;SDS011;59407;42.682;23.322;2023-06-24T12:49:11;6.47;;;4.13;;
71570;SDS011;59407;42.682;23.322;2023-06-24T12:51:37;7.65;;;4.40;;
71570;SDS011;59407;42.682;23.322;2023-06-24T12:54:03;7.07;;;4.30;;
71570;SDS011;59407;42.682;23.322;2023-06-24T12:56:29;6.68;;;4.32;;
71570;SDS011;59407;42.682;23.322;2023-06-24T13:01:23;8.93;;;4.70;;
71570;SDS011;59407;42.682;23.322;2023-06-24T13:06:20;9.30;;;5.75;;
71570;SDS011;59407;42.682;23.322;2023-06-24T13:08:49;7.73;;;5.13;;
71570;SDS011;59407;42.682;23.322;2023-06-24T13:14:06;6.55;;;4.53;;
71570;SDS011;59407;42.682;23.322;2023-06-24T13:16:35;6.90;;;4.10;;
71570;SDS011;59407;42.682;23.322;2023-06-24T13:19:19;8.82;;;5.00;;
71570;SDS011;59407;42.682;23.322;2023-06-24T13:21:45;7.27;;;4.60;;
71570;SDS011;59407;42.682;23.322;2023-06-24T13:24:12;7.93;;;4.80;;
71570;SDS011;59407;42.682;23.322;2023-06-24T13:26:38;9.05;;;4.50;;
71570;SDS011;59407;42.682;23.322;2023-06-24T13:29:03;10.60;;;4.77;;
71570;SDS011;59407;42.682;23.322;2023-06-24T13:31:29;7.07;;;4.30;;
71570;SDS011;59407;42.682;23.322;2023-06-24T13:33:57;8.60;;;4.43;;
71570;SDS011;59407;42.682;23.322;2023-06-24T13:36:45;8.07;;;3.85;;
71570;SDS011;59407;42.682;23.322;2023-06-24T13:39:12;7.78;;;3.50;;
71570;SDS011;59407;42.682;23.322;2023-06-24T13:41:50;6.38;;;3.00;;
71570;SDS011;59407;42.682;23.322;2023-06-24T13:44:42;9.37;;;3.30;;
71570;SDS011;59407;42.682;23.322;2023-06-24T13:47:11;9.35;;;3.33;;
71570;SDS011;59407;42.682;23.322;2023-06-24T13:49:38;7.05;;;3.13;;
71570;SDS011;59407;42.682;23.322;2023-06-24T13:52:03;6.87;;;3.33;;
71570;SDS011;59407;42.682;23.322;2023-06-24T13:54:29;7.75;;;3.10;;
71570;SDS011;59407;42.682;23.322;2023-06-24T13:56:57;6.90;;;3.50;;
71570;SDS011;59407;42.682;23.322;2023-06-24T13:59:38;7.03;;;2.90;;
71570;SDS011;59407;42.682;23.322;2023-06-24T14:02:26;5.88;;;2.80;;
71570;SDS011;59407;42.682;23.322;2023-06-24T14:05:08;7.60;;;2.97;;
71570;SDS011;59407;42.682;23.322;2023-06-24T14:07:36;8.75;;;2.75;;
71570;SDS011;59407;42.682;23.322;2023-06-24T14:10:01;7.53;;;2.73;;
71570;SDS011;59407;42.682;23.322;2023-06-24T14:12:27;5.03;;;2.55;;
71570;SDS011;59407;42.682;23.322;2023-06-24T14:14:54;5.50;;;2.60;;
71570;SDS011;59407;42.682;23.322;2023-06-24T14:17:20;7.40;;;2.53;;
71570;SDS011;59407;42.682;23.322;2023-06-24T14:19:48;7.68;;;3.42;;
71570;SDS011;59407;42.682;23.322;2023-06-24T14:22:19;4.85;;;2.63;;
71570;SDS011;59407;42.682;23.322;2023-06-24T14:24:47;8.00;;;3.22;;
71570;SDS011;59407;42.682;23.322;2023-06-24T14:27:19;7.63;;;2.87;;
71570;SDS011;59407;42.682;23.322;2023-06-24T14:29:51;5.47;;;2.88;;
71570;SDS011;59407;42.682;23.322;2023-06-24T14:32:18;7.88;;;3.35;;
71570;SDS011;59407;42.682;23.322;2023-06-24T14:34:43;8.43;;;3.60;;
71570;SDS011;59407;42.682;23.322;2023-06-24T14:37:09;7.20;;;2.80;;
71570;SDS011;59407;42.682;23.322;2023-06-24T14:39:36;7.32;;;3.78;;
71570;SDS011;59407;42.682;23.322;2023-06-24T14:42:02;5.70;;;2.72;;
71570;SDS011;59407;42.682;23.322;2023-06-24T14:44:28;7.30;;;3.47;;
71570;SDS011;59407;42.682;23.322;2023-06-24T14:46:54;5.82;;;3.10;;
71570;SDS011;59407;42.682;23.322;2023-06-24T14:49:21;12.13;;;3.43;;
71570;SDS011;59407;42.682;23.322;2023-06-24T14:51:47;10.23;;;3.72;;
71570;SDS011;59407;42.682;23.322;2023-06-24T14:54:15;10.00;;;3.10;;
71570;SDS011;59407;42.682;23.322;2023-06-24T14:56:46;20.63;;;9.77;;
71570;SDS011;59407;42.682;23.322;2023-06-24T14:59:13;19.00;;;10.02;;
71570;SDS011;59407;42.682;23.322;2023-06-24T15:01:39;12.47;;;4.60;;
71570;SDS011;59407;42.682;23.322;2023-06-24T15:04:04;8.47;;;4.10;;
71570;SDS011;59407;42.682;23.322;2023-06-24T15:06:30;8.10;;;4.07;;
71570;SDS011;59407;42.682;23.322;2023-06-24T15:08:56;8.20;;;3.60;;
71570;SDS011;59407;42.682;23.322;2023-06-24T15:11:22;8.20;;;3.53;;
71570;SDS011;59407;42.682;23.322;2023-06-24T15:13:51;10.00;;;3.80;;
71570;SDS011;59407;42.682;23.322;2023-06-24T15:16:17;8.83;;;3.50;;
71570;SDS011;59407;42.682;23.322;2023-06-24T15:18:46;10.90;;;3.67;;
71570;SDS011;59407;42.682;23.322;2023-06-24T15:21:12;10.15;;;3.80;;
71570;SDS011;59407;42.682;23.322;2023-06-24T15:23:38;7.38;;;3.55;;
71570;SDS011;59407;42.682;23.322;2023-06-24T15:26:04;9.65;;;3.75;;
71570;SDS011;59407;42.682;23.322;2023-06-24T15:28:29;9.83;;;3.90;;
71570;SDS011;59407;42.682;23.322;2023-06-24T15:30:55;8.87;;;4.00;;
71570;SDS011;59407;42.682;23.322;2023-06-24T15:33:20;7.38;;;3.42;;
71570;SDS011;59407;42.682;23.322;2023-06-24T15:35:46;9.10;;;4.33;;
71570;SDS011;59407;42.682;23.322;2023-06-24T15:38:11;8.43;;;3.87;;
71570;SDS011;59407;42.682;23.322;2023-06-24T15:40:40;8.52;;;4.22;;
71570;SDS011;59407;42.682;23.322;2023-06-24T15:43:06;10.57;;;4.25;;
71570;SDS011;59407;42.682;23.322;2023-06-24T15:45:31;9.13;;;4.00;;
71570;SDS011;59407;42.682;23.322;2023-06-24T15:47:57;10.37;;;4.03;;
71570;SDS011;59407;42.682;23.322;2023-06-24T15:50:22;8.67;;;4.07;;
71570;SDS011;59407;42.682;23.322;2023-06-24T15:52:47;7.53;;;4.00;;
71570;SDS011;59407;42.682;23.322;2023-06-24T15:55:13;12.70;;;4.00;;
71570;SDS011;59407;42.682;23.322;2023-06-24T15:57:38;10.33;;;4.30;;
71570;SDS011;59407;42.682;23.322;2023-06-24T16:00:04;8.27;;;4.03;;
71570;SDS011;59407;42.682;23.322;2023-06-24T16:02:31;7.03;;;3.60;;
71570;SDS011;59407;42.682;23.322;2023-06-24T16:04:58;10.95;;;4.10;;
71570;SDS011;59407;42.682;23.322;2023-06-24T16:07:24;11.93;;;4.07;;
71570;SDS011;59407;42.682;23.322;2023-06-24T16:09:49;9.67;;;4.20;;
71570;SDS011;59407;42.682;23.322;2023-06-24T16:12:15;11.93;;;4.87;;
71570;SDS011;59407;42.682;23.322;2023-06-24T16:14:42;13.95;;;5.80;;
71570;SDS011;59407;42.682;23.322;2023-06-24T16:17:10;8.70;;;3.90;;
71570;SDS011;59407;42.682;23.322;2023-06-24T16:22:35;8.65;;;4.07;;